Terminal Aerodrome Forecast
Issued by NWS

Home | Current Version | Previous Version | Text Only | Print | Product List | Glossary On
Versions: 1 2 3 4 5 6 7 8 9 10 11 12 13 14 15 16 17
000
FTUS43 KILX 231400 AAB
TAFDEC
TAF AMD
KDEC 231447Z 2315/2412 03012G18KT P6SM SCT020
      TEMPO 2315/2317 BKN018
     FM231700 02014G22KT P6SM SCT050
     FM240200 03007KT P6SM SKC=

USA.gov is the U.S. government's official web portal to all federal, state and local government web resources and services.